Time;durP1;ratioP1;P1;durP2;ratioP2;P2;SDS_P1;SDS_P2;PMS_P1;PMS_P2;Temp;Humidity;BMP_temperature;BMP_pressure;BME280_temperature;BME280_humidity;BME280_pressure;Samples;Min_cycle;Max_cycle;Signal;HPM_P1;HPM_P2
2021/05/29 00:01:06;;;;;;;15.13;3.50;;;12.30;99.90;;;;;;5055066;28;20487;-85
2021/05/29 00:03:34;;;;;;;13.50;3.57;;;12.20;99.90;;;;;;5054381;28;20527;-86
2021/05/29 00:06:00;;;;;;;13.70;3.97;;;12.20;99.90;;;;;;5053991;28;20482;-85
2021/05/29 00:08:27;;;;;;;12.77;3.77;;;12.10;99.90;;;;;;5056197;28;20451;-86
2021/05/29 00:10:56;;;;;;;12.97;3.70;;;12.10;99.90;;;;;;5054422;28;20540;-86
2021/05/29 00:13:24;;;;;;;13.37;4.13;;;12.00;99.90;;;;;;5054556;28;20460;-86
2021/05/29 00:15:51;;;;;;;12.63;3.70;;;12.00;99.90;;;;;;5054561;28;20514;-85
2021/05/29 00:18:17;;;;;;;11.77;3.90;;;12.00;99.90;;;;;;5054195;28;20460;-86
2021/05/29 00:20:45;;;;;;;13.80;3.77;;;11.90;99.90;;;;;;5056525;28;20456;-83
2021/05/29 00:23:12;;;;;;;13.40;3.60;;;11.90;99.90;;;;;;5056878;28;20491;-86
2021/05/29 00:25:40;;;;;;;12.50;3.50;;;11.90;99.90;;;;;;5055392;28;20468;-84
2021/05/29 00:28:06;;;;;;;13.20;4.27;;;11.80;99.90;;;;;;5055971;28;20458;-86
2021/05/29 00:30:33;;;;;;;12.23;3.40;;;11.80;99.90;;;;;;5061696;28;20444;-85
2021/05/29 00:33:00;;;;;;;12.40;4.07;;;11.80;99.90;;;;;;5054287;28;20543;-84
2021/05/29 00:35:26;;;;;;;14.83;3.80;;;11.70;99.90;;;;;;5053489;28;20855;-84
2021/05/29 00:37:53;;;;;;;12.50;3.57;;;11.70;99.90;;;;;;5052852;28;20440;-85
2021/05/29 00:40:19;;;;;;;11.50;3.87;;;11.60;99.90;;;;;;5054146;28;20452;-86
2021/05/29 00:42:46;;;;;;;11.93;3.23;;;11.50;99.90;;;;;;5034283;28;20436;-85
2021/05/29 00:45:13;;;;;;;11.10;3.30;;;11.50;99.90;;;;;;5039499;28;20464;-86
2021/05/29 00:47:40;;;;;;;11.97;4.10;;;11.40;99.90;;;;;;5058669;28;20436;-86
2021/05/29 00:50:09;;;;;;;11.90;4.10;;;11.30;99.90;;;;;;5053392;28;20546;-86
2021/05/29 00:52:36;;;;;;;13.10;4.40;;;11.20;99.90;;;;;;5052855;28;20456;-85
2021/05/29 00:55:07;;;;;;;10.13;3.00;;;11.20;99.90;;;;;;5052284;28;21011;-85
2021/05/29 00:57:35;;;;;;;11.97;4.60;;;11.10;99.90;;;;;;5053108;28;21114;-86
2021/05/29 01:00:03;;;;;;;13.17;4.50;;;11.00;99.90;;;;;;5053483;28;20459;-85
2021/05/29 01:02:30;;;;;;;10.23;3.50;;;10.90;99.90;;;;;;5053305;28;20546;-85
2021/05/29 01:04:56;;;;;;;10.10;3.80;;;10.80;99.90;;;;;;5053342;28;20484;-86
2021/05/29 01:07:22;;;;;;;11.90;4.00;;;10.80;99.90;;;;;;5053004;28;20450;-86
2021/05/29 01:09:49;;;;;;;10.63;4.17;;;10.70;99.90;;;;;;5053237;28;20458;-86
2021/05/29 01:12:18;;;;;;;12.03;4.30;;;10.70;99.90;;;;;;5052721;28;20506;-86
2021/05/29 01:14:52;;;;;;;12.90;4.20;;;10.60;99.90;;;;;;5052608;28;20534;-86
2021/05/29 01:17:19;;;;;;;10.40;4.80;;;10.60;99.90;;;;;;5053380;28;21038;-87
2021/05/29 01:19:46;;;;;;;10.63;4.27;;;10.60;99.90;;;;;;5054379;28;20555;-86
2021/05/29 01:22:13;;;;;;;13.43;4.10;;;10.50;99.90;;;;;;5053056;28;20458;-86
2021/05/29 01:24:40;;;;;;;10.57;4.50;;;10.50;99.90;;;;;;5053513;28;20472;-84
2021/05/29 01:27:08;;;;;;;11.03;3.93;;;10.50;99.90;;;;;;5054143;28;20873;-87
2021/05/29 01:29:35;;;;;;;10.87;4.47;;;10.40;99.90;;;;;;5053936;28;20487;-87
2021/05/29 01:32:04;;;;;;;11.37;4.53;;;10.40;99.90;;;;;;5055050;28;20456;-86
2021/05/29 01:34:33;;;;;;;10.30;4.50;;;10.30;99.90;;;;;;5054323;28;20472;-86
2021/05/29 01:37:02;;;;;;;11.00;4.30;;;10.30;99.90;;;;;;5054863;28;20998;-86
2021/05/29 01:39:30;;;;;;;10.27;4.33;;;10.20;99.90;;;;;;5054032;28;20452;-85
2021/05/29 01:41:58;;;;;;;13.43;5.83;;;10.20;99.90;;;;;;5052801;28;20455;-87
2021/05/29 01:44:24;;;;;;;9.40;4.03;;;10.10;99.90;;;;;;5053043;28;20452;-86
2021/05/29 01:46:52;;;;;;;9.60;4.00;;;10.00;99.90;;;;;;5053849;28;20593;-86
2021/05/29 01:49:19;;;;;;;9.97;4.50;;;10.10;99.90;;;;;;5033945;28;20480;-85
2021/05/29 01:51:46;;;;;;;10.90;4.33;;;10.00;99.90;;;;;;5033401;28;20448;-86
2021/05/29 01:54:15;;;;;;;9.77;4.40;;;10.00;99.90;;;;;;5052167;28;20466;-86
2021/05/29 01:56:43;;;;;;;12.30;4.60;;;10.00;99.90;;;;;;5054047;28;20459;-85
2021/05/29 01:59:09;;;;;;;10.93;5.20;;;10.00;99.90;;;;;;5053899;28;20550;-84
2021/05/29 02:01:36;;;;;;;10.33;5.17;;;10.00;99.90;;;;;;5054994;28;20575;-84
2021/05/29 02:04:03;;;;;;;11.07;5.67;;;9.90;99.90;;;;;;5067939;28;20711;-86
2021/05/29 02:06:30;;;;;;;10.70;4.90;;;9.90;99.90;;;;;;5067127;28;20475;-86
2021/05/29 02:08:56;;;;;;;10.40;5.30;;;9.90;99.90;;;;;;5058951;28;20484;-86
2021/05/29 02:11:22;;;;;;;9.53;4.60;;;9.90;99.90;;;;;;5058130;28;20959;-86
2021/05/29 02:13:49;;;;;;;10.80;4.10;;;9.80;99.90;;;;;;5058717;28;20460;-86
2021/05/29 02:16:16;;;;;;;10.77;4.77;;;9.80;99.90;;;;;;5057416;28;20554;-86
2021/05/29 02:18:43;;;;;;;9.93;4.70;;;9.80;99.90;;;;;;5057952;28;20464;-86
2021/05/29 02:21:14;;;;;;;10.30;4.97;;;9.70;99.90;;;;;;5057711;28;20466;-87
2021/05/29 02:23:43;;;;;;;9.97;4.57;;;9.70;99.90;;;;;;5057219;28;20451;-86
2021/05/29 02:26:14;;;;;;;9.50;4.60;;;9.70;99.90;;;;;;5057281;28;20547;-84
2021/05/29 02:28:42;;;;;;;10.07;4.50;;;9.60;99.90;;;;;;5057160;28;20531;-86
2021/05/29 02:31:10;;;;;;;8.70;4.23;;;9.60;99.90;;;;;;5057404;28;20460;-85
2021/05/29 02:33:37;;;;;;;9.90;4.93;;;9.60;99.90;;;;;;5057211;28;20952;-86
2021/05/29 02:36:04;;;;;;;10.10;4.97;;;9.50;99.90;;;;;;5059491;28;20998;-85
2021/05/29 02:38:33;;;;;;;11.53;4.60;;;9.50;99.90;;;;;;5061153;28;20444;-86
2021/05/29 02:40:59;;;;;;;15.20;5.00;;;9.50;99.90;;;;;;5056854;28;20464;-85
2021/05/29 02:43:26;;;;;;;10.43;4.83;;;9.50;99.90;;;;;;5055684;28;20436;-85
2021/05/29 02:45:53;;;;;;;9.60;4.80;;;9.50;99.90;;;;;;5056425;28;20484;-86
2021/05/29 02:48:21;;;;;;;8.83;3.90;;;9.40;99.90;;;;;;5056770;28;20452;-86
2021/05/29 02:50:47;;;;;;;10.20;4.53;;;9.40;99.90;;;;;;5056169;28;20874;-85
2021/05/29 02:53:15;;;;;;;9.20;5.30;;;9.40;99.90;;;;;;5056150;28;20888;-84
2021/05/29 02:55:43;;;;;;;9.53;4.67;;;9.40;99.90;;;;;;5055877;28;20467;-84
2021/05/29 02:58:10;;;;;;;12.40;4.70;;;9.30;99.90;;;;;;5057312;28;20551;-85
2021/05/29 03:00:39;;;;;;;10.03;4.83;;;9.30;99.90;;;;;;5057075;28;20478;-85
2021/05/29 03:03:07;;;;;;;12.23;5.43;;;9.30;99.90;;;;;;5056638;28;20462;-85
2021/05/29 03:05:35;;;;;;;10.80;4.50;;;9.20;99.90;;;;;;5056424;28;20517;-87
2021/05/29 03:08:02;;;;;;;10.90;5.20;;;9.10;99.90;;;;;;5057535;28;20482;-85
2021/05/29 03:10:29;;;;;;;9.47;5.07;;;9.10;99.90;;;;;;5056418;28;20459;-85
2021/05/29 03:12:55;;;;;;;10.17;5.23;;;9.10;99.90;;;;;;5056204;28;20963;-86
2021/05/29 03:15:24;;;;;;;9.70;5.10;;;9.10;99.90;;;;;;5056091;28;20479;-85
2021/05/29 03:17:51;;;;;;;8.70;4.53;;;9.10;99.90;;;;;;5056022;28;20463;-85
2021/05/29 03:20:20;;;;;;;9.70;5.17;;;9.00;99.90;;;;;;5056061;28;20452;-86
2021/05/29 03:22:47;;;;;;;10.53;5.30;;;9.00;99.90;;;;;;5055485;28;20462;-86
2021/05/29 03:25:15;;;;;;;9.40;4.83;;;9.00;99.90;;;;;;5056075;28;20464;-86
2021/05/29 03:27:42;;;;;;;10.93;5.10;;;9.00;99.90;;;;;;5056269;28;20458;-85
2021/05/29 03:30:12;;;;;;;10.27;4.67;;;9.00;99.90;;;;;;5056431;28;20447;-85
2021/05/29 03:32:39;;;;;;;9.70;5.00;;;9.00;99.90;;;;;;5055050;28;20524;-85
2021/05/29 03:35:07;;;;;;;8.27;4.90;;;8.90;99.90;;;;;;5059471;28;20482;-86
2021/05/29 03:37:34;;;;;;;9.50;5.03;;;9.00;99.90;;;;;;5065345;28;20452;-87
2021/05/29 03:40:01;;;;;;;10.40;5.00;;;9.00;99.90;;;;;;5075177;28;20551;-90
2021/05/29 03:42:27;;;;;;;9.40;4.90;;;8.90;99.90;;;;;;5068520;28;20448;-86
2021/05/29 03:44:54;;;;;;;12.63;4.70;;;8.90;99.90;;;;;;5064541;28;20536;-85
2021/05/29 03:47:20;;;;;;;11.33;5.40;;;8.90;99.90;;;;;;5063690;28;20514;-86
2021/05/29 03:49:47;;;;;;;9.00;5.07;;;8.90;99.90;;;;;;5057076;28;20443;-85
2021/05/29 03:52:13;;;;;;;10.23;5.40;;;8.90;99.90;;;;;;5056462;28;20454;-86
2021/05/29 03:54:39;;;;;;;9.90;4.93;;;9.00;99.90;;;;;;5055288;28;20613;-86
2021/05/29 03:57:07;;;;;;;13.60;6.70;;;9.00;99.90;;;;;;5055386;28;20454;-86
2021/05/29 03:59:33;;;;;;;10.67;5.27;;;9.00;99.90;;;;;;5047189;28;20452;-86
2021/05/29 04:02:00;;;;;;;9.77;5.23;;;9.00;99.90;;;;;;5055143;28;20464;-85
2021/05/29 04:07:13;;;;;;;11.20;6.37;;;9.10;99.90;;;;;;5061580;28;20998;-82
2021/05/29 04:09:39;;;;;;;10.30;5.30;;;9.10;99.90;;;;;;5064199;28;21031;-82
2021/05/29 04:12:08;;;;;;;12.77;6.40;;;9.10;99.90;;;;;;5063010;28;20463;-82
2021/05/29 04:14:34;;;;;;;11.20;6.63;;;9.20;99.90;;;;;;5062960;28;20454;-80
2021/05/29 04:17:01;;;;;;;11.43;5.93;;;9.20;99.90;;;;;;5065311;28;20451;-81
2021/05/29 04:19:27;;;;;;;13.17;6.77;;;9.30;99.90;;;;;;5064282;28;20478;-81
2021/05/29 04:21:54;;;;;;;9.93;6.00;;;9.30;99.90;;;;;;5063009;28;20497;-80
2021/05/29 04:24:20;;;;;;;10.90;6.80;;;9.40;99.90;;;;;;5063523;28;20509;-80
2021/05/29 04:26:46;;;;;;;13.93;6.60;;;9.50;99.90;;;;;;5064123;28;20515;-80
2021/05/29 04:29:13;;;;;;;11.13;6.33;;;9.50;99.90;;;;;;5063305;28;20966;-80
2021/05/29 04:31:40;;;;;;;13.43;6.53;;;9.60;99.90;;;;;;5063126;28;20468;-80
2021/05/29 04:34:06;;;;;;;10.50;6.27;;;9.70;99.90;;;;;;5064204;28;20946;-80
2021/05/29 04:36:32;;;;;;;11.67;6.83;;;9.70;99.90;;;;;;5063946;28;20499;-81
2021/05/29 04:38:59;;;;;;;12.03;7.10;;;9.80;99.90;;;;;;5058186;28;20575;-80
2021/05/29 04:41:25;;;;;;;11.87;6.50;;;9.80;99.90;;;;;;5056065;28;20452;-79
2021/05/29 04:43:51;;;;;;;15.57;7.70;;;10.00;99.90;;;;;;5056342;28;20542;-81
2021/05/29 04:46:19;;;;;;;11.63;7.37;;;10.00;99.90;;;;;;5070051;28;20488;-80
2021/05/29 04:48:45;;;;;;;15.00;7.53;;;10.10;99.90;;;;;;5072424;28;20983;-80
2021/05/29 04:51:12;;;;;;;12.87;7.47;;;10.20;99.90;;;;;;5072336;28;20502;-78
2021/05/29 04:53:38;;;;;;;11.33;6.90;;;10.20;99.90;;;;;;5074066;28;20543;-84
2021/05/29 04:56:05;;;;;;;12.60;6.73;;;10.30;99.90;;;;;;5076652;28;20488;-85
2021/05/29 04:58:31;;;;;;;11.83;7.17;;;10.40;99.90;;;;;;5076261;28;20460;-85
2021/05/29 05:00:57;;;;;;;11.63;7.30;;;10.50;99.90;;;;;;5069048;28;20491;-84
2021/05/29 05:03:25;;;;;;;12.33;6.83;;;10.60;99.90;;;;;;5060184;28;20451;-84
2021/05/29 05:05:52;;;;;;;11.93;7.37;;;10.60;99.90;;;;;;5060637;28;20495;-85
2021/05/29 05:08:18;;;;;;;12.60;7.23;;;10.60;99.90;;;;;;5061163;28;20546;-85
2021/05/29 05:10:45;;;;;;;12.77;7.20;;;10.70;99.90;;;;;;5061140;28;20519;-85
2021/05/29 05:13:11;;;;;;;12.33;7.87;;;10.80;99.90;;;;;;5059168;28;20551;-85
2021/05/29 05:15:38;;;;;;;13.20;7.80;;;10.90;99.90;;;;;;5062405;28;20474;-85
2021/05/29 05:18:08;;;;;;;12.50;7.47;;;10.90;99.90;;;;;;5061592;28;20452;-86
2021/05/29 05:20:36;;;;;;;14.70;8.23;;;11.00;99.90;;;;;;5062298;28;20841;-85
2021/05/29 05:23:02;;;;;;;15.50;7.60;;;11.10;99.90;;;;;;5057395;28;20458;-85
2021/05/29 05:25:29;;;;;;;12.20;7.33;;;11.10;99.90;;;;;;5065176;28;20483;-85
2021/05/29 05:27:55;;;;;;;14.97;7.90;;;11.20;99.90;;;;;;5057107;28;20448;-85
2021/05/29 05:30:23;;;;;;;13.30;8.33;;;11.30;99.90;;;;;;5058403;28;20980;-86
2021/05/29 05:32:51;;;;;;;17.97;8.80;;;11.30;99.90;;;;;;5057240;28;20482;-86
2021/05/29 05:35:20;;;;;;;13.27;7.50;;;11.40;99.90;;;;;;5059872;28;20476;-85
2021/05/29 05:37:47;;;;;;;15.27;9.00;;;11.50;99.90;;;;;;5060541;28;20543;-85
2021/05/29 05:40:15;;;;;;;18.37;8.60;;;11.60;99.90;;;;;;5061654;28;20456;-85
2021/05/29 05:42:42;;;;;;;15.03;8.40;;;11.60;99.90;;;;;;5060865;28;20829;-84
2021/05/29 05:45:09;;;;;;;17.77;9.33;;;11.70;99.90;;;;;;5062531;28;20474;-84
2021/05/29 05:47:35;;;;;;;15.77;8.93;;;11.80;99.90;;;;;;5061608;28;20474;-83
2021/05/29 05:50:03;;;;;;;15.40;8.67;;;11.90;99.90;;;;;;5064240;28;20458;-82
2021/05/29 05:52:32;;;;;;;15.80;9.30;;;12.00;99.90;;;;;;5064447;28;20543;-83
2021/05/29 05:54:59;;;;;;;18.60;9.57;;;11.90;99.90;;;;;;5067609;28;20466;-83
2021/05/29 05:57:25;;;;;;;14.93;8.37;;;12.00;99.90;;;;;;5067135;28;20541;-82
2021/05/29 05:59:53;;;;;;;13.87;8.07;;;12.20;99.90;;;;;;5066136;28;20452;-83
2021/05/29 06:02:21;;;;;;;15.70;10.23;;;12.20;99.90;;;;;;5066241;28;20436;-84
2021/05/29 06:04:47;;;;;;;13.83;8.47;;;12.30;99.90;;;;;;5065430;28;20896;-83
2021/05/29 06:07:13;;;;;;;13.50;8.40;;;12.40;99.90;;;;;;5066528;28;20511;-83
2021/05/29 06:09:40;;;;;;;14.33;8.93;;;12.50;99.90;;;;;;5066237;28;20596;-82
2021/05/29 06:12:08;;;;;;;14.43;8.30;;;12.50;99.90;;;;;;5055621;28;20919;-82
2021/05/29 06:20:05;;;;;;;15.20;9.30;;;12.70;99.90;;;;;;5058161;28;20427;-85
2021/05/29 06:22:31;;;;;;;13.00;7.60;;;12.80;99.90;;;;;;5061818;28;20460;-84
2021/05/29 06:24:58;;;;;;;14.30;7.97;;;12.90;99.90;;;;;;5057949;28;20611;-85
2021/05/29 06:27:25;;;;;;;15.20;8.40;;;13.00;99.90;;;;;;5054312;28;20475;-82
2021/05/29 06:29:51;;;;;;;16.90;10.30;;;13.10;99.90;;;;;;5064980;28;20439;-79
2021/05/29 06:32:17;;;;;;;17.97;10.07;;;13.10;99.90;;;;;;5060565;28;20504;-80
2021/05/29 06:34:44;;;;;;;13.80;8.03;;;13.20;99.90;;;;;;5060087;28;20455;-79
2021/05/29 06:37:10;;;;;;;15.27;9.70;;;13.20;99.90;;;;;;5061523;28;20539;-79
2021/05/29 06:39:37;;;;;;;13.50;8.63;;;13.30;99.90;;;;;;5061759;28;20523;-80
2021/05/29 06:42:04;;;;;;;13.67;8.77;;;13.40;99.90;;;;;;5062022;28;20459;-80
2021/05/29 06:44:31;;;;;;;17.37;8.60;;;13.60;99.90;;;;;;5063508;28;20459;-79
2021/05/29 06:46:57;;;;;;;15.40;9.77;;;13.60;99.90;;;;;;5061544;28;20507;-80
2021/05/29 06:49:24;;;;;;;13.60;8.60;;;13.60;99.90;;;;;;5062078;28;20460;-80
2021/05/29 06:51:56;;;;;;;17.93;9.47;;;13.70;99.90;;;;;;5061963;28;20451;-80
2021/05/29 06:54:31;;;;;;;19.10;9.63;;;13.70;99.90;;;;;;5061450;28;20452;-80
2021/05/29 06:59:42;;;;;;;17.00;8.83;;;13.80;99.90;;;;;;5046939;28;20435;-79
2021/05/29 07:02:09;;;;;;;14.90;8.70;;;13.90;99.90;;;;;;5060993;28;20523;-80
2021/05/29 07:04:35;;;;;;;15.30;9.10;;;14.00;99.90;;;;;;5064306;28;20469;-78
2021/05/29 07:07:02;;;;;;;16.80;9.00;;;14.10;99.90;;;;;;5063956;28;20475;-79
2021/05/29 07:09:28;;;;;;;15.47;10.00;;;14.20;99.90;;;;;;5064294;28;20440;-80
2021/05/29 07:11:54;;;;;;;17.43;9.87;;;14.20;99.90;;;;;;5060257;28;20483;-81
2021/05/29 07:14:21;;;;;;;17.00;9.77;;;14.40;99.90;;;;;;5057699;28;20456;-78
2021/05/29 07:16:50;;;;;;;22.10;12.67;;;14.50;99.90;;;;;;5057626;28;20551;-80
2021/05/29 07:19:17;;;;;;;23.53;15.17;;;14.70;99.90;;;;;;5059879;28;20476;-79
2021/05/29 07:21:44;;;;;;;22.20;13.30;;;14.70;99.90;;;;;;5057318;28;20539;-83
2021/05/29 07:24:11;;;;;;;20.00;13.20;;;14.80;99.90;;;;;;5057485;28;20950;-81
2021/05/29 07:26:37;;;;;;;25.03;15.50;;;14.90;99.90;;;;;;5057398;28;20566;-81
2021/05/29 07:29:03;;;;;;;23.53;16.87;;;14.80;99.90;;;;;;5058149;28;20905;-83
2021/05/29 07:31:30;;;;;;;20.30;14.20;;;14.70;99.90;;;;;;5059581;28;20455;-82
2021/05/29 07:33:57;;;;;;;21.47;15.30;;;14.80;99.90;;;;;;5059775;28;20459;-83
2021/05/29 07:36:24;;;;;;;22.50;15.63;;;15.10;99.90;;;;;;5059787;28;20522;-84
2021/05/29 07:38:51;;;;;;;25.17;17.00;;;15.40;99.90;;;;;;5060058;28;20460;-81
2021/05/29 07:41:17;;;;;;;22.50;16.43;;;15.40;99.90;;;;;;5059500;28;21023;-82
2021/05/29 07:43:44;;;;;;;22.23;16.30;;;15.40;99.90;;;;;;5061801;28;20968;-84
2021/05/29 07:46:10;;;;;;;25.40;15.47;;;15.30;99.90;;;;;;5059616;28;20928;-83
2021/05/29 07:48:38;;;;;;;27.80;19.17;;;15.40;99.90;;;;;;5061017;28;20448;-82
2021/05/29 07:51:06;;;;;;;25.77;16.97;;;15.40;99.90;;;;;;5059405;28;20491;-82
2021/05/29 07:53:33;;;;;;;24.60;16.10;;;15.20;99.90;;;;;;5058654;28;20455;-82
2021/05/29 07:56:01;;;;;;;22.03;14.33;;;15.30;99.90;;;;;;5058922;28;20472;-82
2021/05/29 07:58:28;;;;;;;19.10;12.03;;;15.20;99.90;;;;;;5059175;28;20535;-81
2021/05/29 08:00:55;;;;;;;21.37;12.90;;;15.30;99.90;;;;;;5061668;28;20456;-83
2021/05/29 08:03:24;;;;;;;19.87;13.40;;;15.50;99.90;;;;;;5059069;28;20543;-81
2021/05/29 08:05:51;;;;;;;21.60;12.80;;;15.80;99.90;;;;;;5059424;28;20626;-82
2021/05/29 08:08:20;;;;;;;19.90;11.33;;;16.10;99.90;;;;;;5061354;28;20466;-84
2021/05/29 08:10:48;;;;;;;21.10;12.80;;;16.40;99.90;;;;;;5061628;28;20515;-82
2021/05/29 08:13:15;;;;;;;20.33;11.40;;;16.70;99.90;;;;;;5059837;28;20452;-82
2021/05/29 08:15:41;;;;;;;22.00;11.30;;;17.00;99.90;;;;;;5060760;28;20551;-83
2021/05/29 08:18:08;;;;;;;22.90;11.40;;;17.10;99.90;;;;;;5060754;28;20535;-84
2021/05/29 08:20:35;;;;;;;18.20;9.90;;;17.30;99.90;;;;;;5059283;28;20538;-81
2021/05/29 08:23:03;;;;;;;18.70;9.27;;;17.60;99.90;;;;;;5061194;28;20462;-82
2021/05/29 08:25:30;;;;;;;17.70;8.13;;;17.40;99.90;;;;;;5061828;28;20492;-82
2021/05/29 08:27:56;;;;;;;16.83;7.40;;;17.40;99.90;;;;;;5060376;28;20460;-82
2021/05/29 08:30:22;;;;;;;18.73;6.40;;;17.80;99.90;;;;;;5057889;28;20551;-83
2021/05/29 08:32:49;;;;;;;16.97;8.33;;;18.40;99.90;;;;;;5059122;28;20481;-81
2021/05/29 08:35:16;;;;;;;17.83;8.67;;;18.80;99.90;;;;;;5058971;28;20562;-83
2021/05/29 08:37:44;;;;;;;22.00;6.87;;;19.10;99.90;;;;;;5058125;28;20498;-82
2021/05/29 08:40:12;;;;;;;28.17;9.00;;;18.90;99.90;;;;;;5056905;28;20988;-83
2021/05/29 08:42:41;;;;;;;61.67;55.43;;;19.00;99.90;;;;;;5057812;28;20511;-84
2021/05/29 08:45:09;;;;;;;24.37;11.63;;;19.40;99.90;;;;;;5057753;28;20539;-83
2021/05/29 08:47:35;;;;;;;479.50;452.83;;;20.10;99.90;;;;;;5058371;28;20514;-84
2021/05/29 08:50:02;;;;;;;1496.20;816.97;;;20.20;99.90;;;;;;5057812;28;20460;-82
2021/05/29 08:52:29;;;;;;;1999.90;999.90;;;19.70;99.90;;;;;;5057158;28;20464;-83
2021/05/29 08:54:56;;;;;;;1999.90;999.90;;;19.60;99.90;;;;;;5057947;28;20510;-83
2021/05/29 08:57:23;;;;;;;1999.90;999.90;;;19.40;99.90;;;;;;5056651;28;20480;-82
2021/05/29 08:59:50;;;;;;;884.03;828.17;;;19.20;99.90;;;;;;5057320;28;20491;-83
2021/05/29 09:02:16;;;;;;;1999.90;999.90;;;19.40;99.90;;;;;;5058347;28;20503;-83
2021/05/29 09:05:07;;;;;;;815.33;466.50;;;19.40;99.90;;;;;;5058318;28;20484;-83
2021/05/29 09:07:33;;;;;;;813.90;467.30;;;19.60;99.90;;;;;;5048111;28;20487;-83
2021/05/29 09:10:17;;;;;;;418.23;392.20;;;20.10;99.90;;;;;;5060374;28;20487;-83
2021/05/29 09:13:01;;;;;;;71.30;40.60;;;20.10;99.90;;;;;;5062044;28;20844;-83
2021/05/29 09:15:51;;;;;;;19.27;6.43;;;20.20;99.90;;;;;;5062532;28;20527;-83
2021/05/29 09:18:35;;;;;;;10.93;6.50;;;21.50;99.90;;;;;;5063400;28;20588;-83
2021/05/29 09:21:29;;;;;;;10.40;5.40;;;23.10;99.90;;;;;;5064431;28;20463;-80
2021/05/29 09:23:59;;;;;;;10.20;6.73;;;24.50;99.90;;;;;;5063020;28;20940;-83
2021/05/29 09:26:47;;;;;;;8.67;5.47;;;23.90;99.90;;;;;;5062192;28;20607;-82
2021/05/29 09:29:19;;;;;;;8.90;6.37;;;23.80;99.90;;;;;;5061432;28;20467;-83
2021/05/29 09:31:55;;;;;;;7.80;4.80;;;23.40;99.90;;;;;;5059654;28;20486;-83
2021/05/29 09:34:32;;;;;;;9.00;5.27;;;24.20;99.90;;;;;;5061171;28;20462;-81
2021/05/29 09:37:04;;;;;;;9.40;5.50;;;25.00;99.90;;;;;;5063129;28;20494;-85
2021/05/29 09:39:31;;;;;;;8.80;5.07;;;25.20;99.90;;;;;;5062592;28;20531;-83
2021/05/29 09:41:59;;;;;;;10.73;5.67;;;25.40;99.90;;;;;;5061978;28;20488;-84
2021/05/29 09:44:29;;;;;;;8.73;4.43;;;26.50;99.90;;;;;;5060856;28;20448;-82
2021/05/29 09:46:58;;;;;;;7.73;4.07;;;28.70;99.90;;;;;;5060097;28;20509;-82
2021/05/29 09:49:26;;;;;;;10.00;6.17;;;29.90;93.50;;;;;;5061376;28;20454;-82
2021/05/29 09:51:54;;;;;;;8.00;5.63;;;29.80;89.50;;;;;;5061590;28;20458;-83
2021/05/29 09:54:24;;;;;;;7.87;5.13;;;28.10;83.40;;;;;;5060559;28;20501;-82
2021/05/29 09:57:02;;;;;;;7.60;5.27;;;28.10;90.80;;;;;;5060322;28;21076;-83
2021/05/29 09:59:29;;;;;;;9.40;5.00;;;28.40;83.10;;;;;;5062441;28;20459;-84
2021/05/29 10:01:58;;;;;;;7.30;5.30;;;28.60;85.00;;;;;;5058037;28;20447;-83
2021/05/29 10:04:37;;;;;;;7.87;5.37;;;27.60;81.60;;;;;;5060455;28;20444;-83
2021/05/29 10:07:05;;;;;;;7.17;4.43;;;27.40;82.90;;;;;;5062344;23;20499;-81
2021/05/29 10:09:31;;;;;;;8.90;3.90;;;28.80;82.30;;;;;;5046021;28;20515;-80
2021/05/29 10:11:59;;;;;;;9.03;5.40;;;29.00;76.80;;;;;;5045602;28;20452;-82
2021/05/29 10:14:27;;;;;;;7.10;5.07;;;28.10;74.40;;;;;;5041408;28;20451;-81
2021/05/29 10:16:54;;;;;;;8.80;5.53;;;27.80;79.20;;;;;;5040434;28;20465;-81
2021/05/29 10:19:22;;;;;;;6.90;4.70;;;27.90;79.20;;;;;;5041681;28;20820;-82
2021/05/29 10:21:50;;;;;;;7.43;5.20;;;27.60;77.50;;;;;;5038964;28;20440;-81
2021/05/29 10:24:17;;;;;;;9.40;6.83;;;27.90;77.10;;;;;;5040396;28;20480;-81
2021/05/29 10:26:44;;;;;;;9.10;6.10;;;27.80;75.90;;;;;;5040427;28;20490;-83
2021/05/29 10:29:11;;;;;;;9.43;5.93;;;27.90;77.00;;;;;;5041082;28;20522;-81
2021/05/29 10:31:40;;;;;;;7.77;5.17;;;26.70;74.40;;;;;;5038870;28;21008;-82
2021/05/29 10:34:07;;;;;;;10.53;5.20;;;27.40;80.50;;;;;;5040627;28;20441;-81
2021/05/29 10:36:45;;;;;;;8.57;6.70;;;30.50;82.60;;;;;;5045509;28;20479;-82
2021/05/29 10:39:14;;;;;;;6.70;4.10;;;32.00;73.00;;;;;;5049949;28;20504;-83
2021/05/29 10:41:57;;;;;;;6.90;4.07;;;33.20;67.70;;;;;;5046628;28;20449;-79
2021/05/29 10:44:33;;;;;;;8.53;5.77;;;31.40;63.40;;;;;;5044567;28;20449;-79
2021/05/29 10:47:12;;;;;;;9.63;6.93;;;29.80;65.40;;;;;;5051861;28;20488;-81
2021/05/29 10:49:59;;;;;;;8.03;6.47;;;30.60;72.30;;;;;;5051871;28;20468;-81
2021/05/29 10:52:51;;;;;;;9.47;5.97;;;32.40;66.10;;;;;;5052759;28;20594;-82
2021/05/29 10:55:22;;;;;;;11.03;9.93;;;32.20;62.10;;;;;;5029113;28;20539;-82
2021/05/29 10:57:59;;;;;;;12.93;11.60;;;30.40;64.40;;;;;;5033668;28;20447;-83
2021/05/29 11:00:50;;;;;;;17.60;15.90;;;29.40;62.70;;;;;;5027816;28;20457;-81
2021/05/29 11:03:29;;;;;;;59.90;54.63;;;27.60;66.90;;;;;;5043474;28;20425;-81
2021/05/29 11:05:59;;;;;;;25.90;23.40;;;27.40;75.40;;;;;;5051326;28;20501;-83
2021/05/29 11:08:49;;;;;;;66.00;61.50;;;29.00;74.50;;;;;;5039630;28;20501;-83
2021/05/29 11:11:50;;;;;;;44.23;40.47;;;30.50;67.80;;;;;;5040119;28;20445;-83
2021/05/29 11:14:17;;;;;;;8.60;6.03;;;29.70;65.30;;;;;;5033266;28;20502;-82
2021/05/29 11:17:08;;;;;;;9.10;5.50;;;30.40;71.00;;;;;;5042390;28;20464;-84
2021/05/29 11:19:36;;;;;;;6.67;4.87;;;33.20;65.80;;;;;;5041883;28;20459;-83
2021/05/29 11:22:04;;;;;;;14.17;11.50;;;35.00;63.90;;;;;;5045219;28;20456;-84
2021/05/29 11:24:33;;;;;;;58.23;50.00;;;35.90;56.00;;;;;;5043231;28;20556;-84
2021/05/29 11:27:00;;;;;;;84.67;19.60;;;35.00;54.20;;;;;;5040831;28;20538;-84
2021/05/29 11:29:26;;;;;;;125.77;112.00;;;34.50;57.20;;;;;;5042435;28;20457;-84
2021/05/29 11:31:53;;;;;;;129.47;106.37;;;35.40;57.00;;;;;;5040301;28;20539;-85
2021/05/29 11:34:20;;;;;;;36.17;30.63;;;35.90;53.70;;;;;;5043713;28;20539;-84
2021/05/29 11:36:46;;;;;;;127.50;114.70;;;33.60;52.80;;;;;;5042955;28;20476;-84
2021/05/29 11:39:14;;;;;;;50.57;45.37;;;33.00;58.20;;;;;;5041017;28;20506;-83
2021/05/29 11:41:42;;;;;;;155.03;138.83;;;34.10;57.80;;;;;;5041592;28;20857;-84
2021/05/29 11:44:19;;;;;;;94.47;84.80;;;35.40;58.20;;;;;;5040951;28;20471;-85
2021/05/29 11:46:46;;;;;;;43.97;39.80;;;37.10;52.80;;;;;;5042002;28;20496;-84
2021/05/29 11:49:13;;;;;;;18.07;16.27;;;36.70;49.40;;;;;;5040760;28;20475;-84
2021/05/29 11:51:41;;;;;;;92.97;84.67;;;34.20;52.10;;;;;;5038929;28;20479;-84
2021/05/29 11:54:10;;;;;;;101.20;91.47;;;34.30;54.00;;;;;;5040276;28;20475;-83
2021/05/29 11:56:38;;;;;;;43.77;23.60;;;35.10;52.10;;;;;;5041561;28;20468;-84
2021/05/29 11:59:07;;;;;;;43.97;39.57;;;36.20;53.50;;;;;;5040097;28;20528;-84
2021/05/29 12:01:36;;;;;;;22.30;20.07;;;36.80;50.60;;;;;;5033357;28;20478;-84
2021/05/29 12:04:03;;;;;;;35.10;29.30;;;37.60;49.90;;;;;;5038241;28;20460;-84
2021/05/29 12:06:42;;;;;;;104.93;95.60;;;39.20;49.80;;;;;;5036969;28;20583;-84
2021/05/29 12:09:12;;;;;;;87.27;79.27;;;39.90;47.00;;;;;;5037820;28;20457;-84
2021/05/29 12:11:41;;;;;;;495.47;447.77;;;40.30;47.30;;;;;;5035462;28;20867;-84
2021/05/29 12:14:11;;;;;;;61.63;55.77;;;40.20;47.00;;;;;;5036723;28;20543;-84
2021/05/29 12:16:40;;;;;;;113.97;104.30;;;39.20;46.10;;;;;;5038298;28;20465;-84
2021/05/29 12:19:07;;;;;;;146.33;132.70;;;37.90;46.60;;;;;;5039096;28;20453;-84
2021/05/29 12:21:47;;;;;;;304.23;274.90;;;35.90;46.20;;;;;;5039886;28;20467;-83
2021/05/29 12:24:13;;;;;;;81.93;74.00;;;35.10;50.00;;;;;;5041627;28;20999;-84
2021/05/29 12:26:41;;;;;;;56.27;50.97;;;35.90;47.40;;;;;;5040145;28;20502;-84
2021/05/29 12:29:08;;;;;;;11.83;9.80;;;37.10;48.60;;;;;;5041235;28;20453;-84
2021/05/29 12:31:58;;;;;;;10.73;9.63;;;38.10;50.10;;;;;;5039530;28;20484;-85
2021/05/29 12:34:27;;;;;;;6.20;3.83;;;38.40;47.90;;;;;;5041260;28;20465;-84
2021/05/29 12:37:02;;;;;;;8.20;5.63;;;39.00;49.00;;;;;;5041152;28;20481;-84
2021/05/29 12:39:50;;;;;;;22.57;20.63;;;39.30;46.30;;;;;;5041495;28;20475;-83
2021/05/29 12:42:25;;;;;;;31.37;13.73;;;39.80;44.20;;;;;;5020778;28;20458;-83
2021/05/29 12:44:55;;;;;;;110.30;100.43;;;38.60;44.20;;;;;;5023578;28;20455;-84
2021/05/29 12:47:23;;;;;;;19.87;18.07;;;36.80;44.80;;;;;;5039620;28;20488;-83
2021/05/29 12:49:50;;;;;;;9.70;7.63;;;36.30;46.40;;;;;;5038415;28;20536;-84
2021/05/29 12:52:37;;;;;;;8.73;5.53;;;37.20;46.50;;;;;;5039898;28;20491;-84
2021/05/29 12:55:05;;;;;;;7.27;4.67;;;38.00;46.00;;;;;;5032294;28;20459;-84
2021/05/29 12:57:39;;;;;;;8.00;5.07;;;39.40;44.80;;;;;;5041283;28;20469;-84